createdAt,value
2023-04-27T00:03:06.303Z,19.90
2023-04-27T00:06:48.340Z,19.90
2023-04-27T00:10:30.095Z,19.90
2023-04-27T00:14:13.439Z,19.90
2023-04-27T00:17:55.676Z,19.90
2023-04-27T00:21:37.813Z,19.90
2023-04-27T00:25:19.567Z,19.90
2023-04-27T00:29:01.333Z,19.80
2023-04-27T00:32:43.474Z,19.80
2023-04-27T00:36:25.248Z,19.80
2023-04-27T00:40:08.016Z,19.80
2023-04-27T00:43:49.745Z,19.90
2023-04-27T00:47:32.440Z,19.80
2023-04-27T00:51:14.563Z,19.80
2023-04-27T00:54:57.831Z,19.80
2023-04-27T00:58:39.780Z,19.80
2023-04-27T01:02:22.015Z,19.80
2023-04-27T01:06:04.018Z,19.80
2023-04-27T01:09:46.652Z,19.80
2023-04-27T01:13:28.361Z,19.80
2023-04-27T01:17:10.924Z,19.80
2023-04-27T01:20:53.435Z,19.80
2023-04-27T01:24:35.379Z,19.70
2023-04-27T01:28:17.180Z,19.80
2023-04-27T01:31:58.962Z,19.80
2023-04-27T01:35:40.774Z,19.80
2023-04-27T01:39:22.599Z,19.80
2023-04-27T01:43:04.888Z,19.70
2023-04-27T01:46:46.743Z,19.70
2023-04-27T01:50:28.507Z,19.70
2023-04-27T01:54:10.225Z,19.70
2023-04-27T01:57:51.976Z,19.70
2023-04-27T02:01:34.589Z,19.70
2023-04-27T02:05:16.810Z,19.70
2023-04-27T02:08:58.609Z,19.70
2023-04-27T02:12:40.787Z,19.70
2023-04-27T02:16:22.788Z,19.70
2023-04-27T02:20:07.086Z,19.70
2023-04-27T02:23:48.870Z,19.70
2023-04-27T02:27:30.598Z,19.70
2023-04-27T02:31:12.960Z,19.60
2023-04-27T02:34:56.695Z,19.70
2023-04-27T02:38:38.419Z,19.70
2023-04-27T02:42:20.329Z,19.60
2023-04-27T02:46:05.584Z,19.60
2023-04-27T02:49:47.620Z,19.70
2023-04-27T02:53:29.354Z,19.60
2023-04-27T02:57:11.418Z,19.70
2023-04-27T03:00:56.873Z,19.70
2023-04-27T03:04:38.992Z,19.60
2023-04-27T03:08:20.810Z,19.60
2023-04-27T03:12:02.801Z,19.60
2023-04-27T03:15:44.597Z,19.60
2023-04-27T03:19:26.368Z,19.60
2023-04-27T03:23:08.189Z,19.60
2023-04-27T03:26:49.902Z,19.60
2023-04-27T03:30:31.595Z,19.60
2023-04-27T03:34:13.512Z,19.60
2023-04-27T03:37:55.408Z,19.60
2023-04-27T03:41:37.211Z,19.60
2023-04-27T03:45:19.260Z,19.60
2023-04-27T03:49:01.354Z,19.60
2023-04-27T03:52:43.124Z,19.60
2023-04-27T03:56:24.929Z,19.60
2023-04-27T04:00:11.578Z,19.60
2023-04-27T04:03:53.629Z,19.60
2023-04-27T04:07:35.679Z,19.60
2023-04-27T04:11:17.373Z,19.60
2023-04-27T04:14:59.359Z,19.60
2023-04-27T04:18:41.141Z,19.60
2023-04-27T04:22:22.894Z,19.60
2023-04-27T04:26:04.919Z,19.60
2023-04-27T04:29:46.893Z,19.60
2023-04-27T04:33:28.644Z,19.60
2023-04-27T04:37:10.682Z,19.60
2023-04-27T04:40:52.954Z,19.60
2023-04-27T04:44:34.796Z,19.60
2023-04-27T04:48:16.799Z,19.60
2023-04-27T04:51:58.545Z,19.60
2023-04-27T04:55:41.215Z,19.50
2023-04-27T04:59:23.303Z,19.60
2023-04-27T05:03:07.796Z,19.60
2023-04-27T05:06:49.781Z,19.60
2023-04-27T05:10:31.476Z,19.50
2023-04-27T05:14:13.391Z,19.60
2023-04-27T05:17:55.237Z,19.60
2023-04-27T05:21:36.949Z,19.60
2023-04-27T05:25:18.878Z,19.50
2023-04-27T05:29:00.813Z,19.50
2023-04-27T05:32:42.705Z,19.60
2023-04-27T05:36:24.473Z,19.50
2023-04-27T05:40:09.320Z,19.50
2023-04-27T05:43:51.452Z,19.60
2023-04-27T05:47:33.165Z,19.60
2023-04-27T05:51:15.022Z,19.60
2023-04-27T14:37:13.732Z,19.90
2023-04-27T14:40:56.294Z,19.90
2023-04-27T14:44:38.294Z,19.90
2023-04-27T14:48:20.185Z,19.90
2023-04-27T14:52:06.592Z,19.90
2023-04-27T14:55:48.579Z,19.90
2023-04-27T14:59:30.658Z,19.90
2023-04-27T15:03:12.763Z,19.90
2023-04-27T15:06:54.796Z,19.90
2023-04-27T15:10:36.725Z,20.00
2023-04-27T15:14:18.673Z,19.90
2023-04-27T15:18:00.716Z,20.00
2023-04-27T15:21:42.704Z,19.90
2023-04-27T15:25:24.553Z,20.00
2023-04-27T15:29:06.784Z,20.00
2023-04-27T15:32:48.761Z,20.00
2023-04-27T15:36:31.617Z,20.00
2023-04-27T15:40:13.554Z,20.00
2023-04-27T15:43:55.542Z,20.00
2023-04-27T15:47:37.427Z,20.00
2023-04-27T15:51:19.445Z,20.00
2023-04-27T15:55:01.769Z,20.00
2023-04-27T15:58:43.598Z,20.00
2023-04-27T16:02:26.330Z,20.00
2023-04-27T16:06:08.336Z,20.00
2023-04-27T16:09:50.267Z,20.00
2023-04-27T16:13:32.757Z,20.00
2023-04-27T16:17:14.733Z,20.00
2023-04-27T16:20:56.621Z,20.00
2023-04-27T16:24:38.489Z,20.00
2023-04-27T16:28:20.611Z,20.00
2023-04-27T16:32:02.520Z,20.00
2023-04-27T16:35:44.446Z,20.00
2023-04-27T16:39:26.462Z,20.00
2023-04-27T16:43:08.479Z,20.00
2023-04-27T16:46:53.250Z,20.00
2023-04-27T16:50:35.248Z,20.00
2023-04-27T16:54:17.183Z,20.00
2023-04-27T16:57:59.150Z,20.00
2023-04-27T17:01:41.131Z,20.00
2023-04-27T17:05:23.360Z,20.00
2023-04-27T17:09:05.268Z,20.00
2023-04-27T17:12:47.335Z,20.00
2023-04-27T17:16:29.357Z,20.00
2023-04-27T17:20:11.946Z,20.00
2023-04-27T17:23:53.910Z,20.00
2023-04-27T17:27:35.869Z,20.00
2023-04-27T17:31:18.087Z,20.00
2023-04-27T17:35:00.548Z,20.00
2023-04-27T17:38:42.498Z,20.00
2023-04-27T17:42:24.419Z,20.00
2023-04-27T17:46:09.885Z,20.00
2023-04-27T17:49:51.784Z,20.00
2023-04-27T17:53:33.642Z,20.00
2023-04-27T17:57:15.512Z,20.00
2023-04-27T18:00:57.571Z,20.00
2023-04-27T18:04:39.640Z,20.00
2023-04-27T18:08:21.530Z,20.00
2023-04-27T18:12:06.075Z,20.00
2023-04-27T18:15:47.966Z,20.00
2023-04-27T18:19:30.053Z,20.00
2023-04-27T18:23:11.985Z,20.00
2023-04-27T18:26:53.925Z,19.90
2023-04-27T18:30:35.842Z,19.90
2023-04-27T18:34:17.754Z,20.00
2023-04-27T18:38:00.177Z,20.00
2023-04-27T18:41:42.086Z,20.00
2023-04-27T18:45:24.079Z,19.90
2023-04-27T18:49:07.252Z,19.90
2023-04-27T18:52:49.293Z,19.90
2023-04-27T18:57:11.444Z,20.00
2023-04-27T19:00:53.380Z,19.90
2023-04-27T19:04:35.557Z,19.90
2023-04-27T19:08:17.464Z,19.90
2023-04-27T19:16:55.659Z,19.90
2023-04-27T19:20:42.537Z,20.20
2023-04-27T19:24:28.560Z,20.20
2023-04-27T19:28:25.907Z,20.20
2023-04-27T19:32:11.265Z,20.20
2023-04-27T19:36:01.170Z,20.20
2023-04-27T19:39:44.508Z,20.10
2023-04-27T19:43:33.737Z,20.10
2023-04-27T19:47:23.439Z,20.10
2023-04-27T19:51:12.130Z,20.10
2023-04-27T19:54:55.272Z,20.00
2023-04-27T19:58:39.593Z,20.00
2023-04-27T20:02:27.405Z,20.00
2023-04-27T20:06:15.526Z,20.00
2023-04-27T20:10:05.904Z,20.00
2023-04-27T20:13:55.148Z,20.10
2023-04-27T20:17:45.819Z,20.00
2023-04-27T20:21:35.087Z,20.10
2023-04-27T20:35:11.587Z,20.00
2023-04-27T20:39:04.597Z,20.00
2023-04-27T20:42:58.499Z,20.00
2023-04-27T20:46:47.419Z,20.10
2023-04-27T20:50:30.886Z,20.10
2023-04-27T20:54:12.767Z,20.10
2023-04-27T20:57:55.135Z,20.10
2023-04-27T21:01:36.904Z,20.10
2023-04-27T21:05:18.781Z,20.10
2023-04-27T21:09:00.569Z,20.10
2023-04-27T21:12:42.288Z,20.10
2023-04-27T21:16:24.067Z,20.10
2023-04-27T21:20:06.566Z,20.10
2023-04-27T21:23:51.725Z,20.10
2023-04-27T21:27:36.579Z,20.10
2023-04-27T21:31:20.052Z,20.10
2023-04-27T21:35:04.763Z,20.10
2023-04-27T21:38:47.217Z,20.10
2023-04-27T21:42:35.058Z,20.10
2023-04-27T21:46:21.613Z,20.10
2023-04-27T21:50:03.787Z,20.10
2023-04-27T21:53:45.763Z,20.10
2023-04-27T21:57:27.712Z,20.10
2023-04-27T22:01:11.107Z,20.10
2023-04-27T22:04:53.062Z,20.10
2023-04-27T22:08:35.267Z,20.10
2023-04-27T22:12:17.026Z,20.10
2023-04-27T22:15:58.788Z,20.10
2023-04-27T22:19:41.449Z,20.10
2023-04-27T22:23:23.260Z,20.10
2023-04-27T22:27:05.072Z,20.00
2023-04-27T22:30:51.736Z,20.10
2023-04-27T22:34:41.363Z,20.10
2023-04-27T22:38:31.231Z,20.00
2023-04-27T22:42:21.653Z,20.00
2023-04-27T22:46:10.749Z,20.00
2023-04-27T22:50:00.149Z,20.00
2023-04-27T22:53:49.408Z,20.00
2023-04-27T22:57:37.306Z,20.00
2023-04-27T23:01:26.064Z,20.10
2023-04-27T23:05:15.096Z,20.00
2023-04-27T23:09:03.400Z,20.00
2023-04-27T23:12:49.758Z,20.00
2023-04-27T23:16:35.062Z,20.00
2023-04-27T23:20:28.011Z,20.00
2023-04-27T23:24:12.051Z,20.00
2023-04-27T23:27:54.053Z,20.00
2023-04-27T23:31:38.736Z,20.00
2023-04-27T23:35:28.352Z,20.00
2023-04-27T23:39:11.253Z,20.00
2023-04-27T23:42:53.686Z,20.00
2023-04-27T23:46:37.272Z,20.00
2023-04-27T23:50:19.838Z,20.00
2023-04-27T23:54:01.633Z,20.00
2023-04-27T23:57:44.288Z,20.00
